sensor_id;sensor_type;location;lat;lon;timestamp;P1;durP1;ratioP1;P2;durP2;ratioP2
22557;SDS011;11445;53.816;8.902;2023-04-16T00:00:14;29.83;;;16.42;;
22557;SDS011;11445;53.816;8.902;2023-04-16T00:02:41;48.83;;;20.17;;
22557;SDS011;11445;53.816;8.902;2023-04-16T00:05:08;29.42;;;16.88;;
22557;SDS011;11445;53.816;8.902;2023-04-16T00:07:35;34.83;;;17.55;;
22557;SDS011;11445;53.816;8.902;2023-04-16T00:10:03;26.33;;;17.85;;
22557;SDS011;11445;53.816;8.902;2023-04-16T00:12:32;29.17;;;17.27;;
22557;SDS011;11445;53.816;8.902;2023-04-16T00:15:00;27.60;;;16.42;;
22557;SDS011;11445;53.816;8.902;2023-04-16T00:17:27;28.88;;;16.60;;
22557;SDS011;11445;53.816;8.902;2023-04-16T00:19:54;31.85;;;18.25;;
22557;SDS011;11445;53.816;8.902;2023-04-16T00:22:21;31.83;;;17.85;;
22557;SDS011;11445;53.816;8.902;2023-04-16T00:24:49;25.95;;;17.27;;
22557;SDS011;11445;53.816;8.902;2023-04-16T00:27:17;31.33;;;17.40;;
22557;SDS011;11445;53.816;8.902;2023-04-16T00:29:45;30.13;;;18.30;;
22557;SDS011;11445;53.816;8.902;2023-04-16T00:32:12;32.03;;;18.52;;
22557;SDS011;11445;53.816;8.902;2023-04-16T00:34:40;31.33;;;18.45;;
22557;SDS011;11445;53.816;8.902;2023-04-16T00:37:07;26.85;;;18.20;;
22557;SDS011;11445;53.816;8.902;2023-04-16T00:39:34;32.30;;;18.02;;
22557;SDS011;11445;53.816;8.902;2023-04-16T00:42:01;30.52;;;17.60;;
22557;SDS011;11445;53.816;8.902;2023-04-16T00:44:28;30.73;;;17.70;;
22557;SDS011;11445;53.816;8.902;2023-04-16T00:46:57;30.42;;;17.92;;
22557;SDS011;11445;53.816;8.902;2023-04-16T00:49:24;28.13;;;17.63;;
22557;SDS011;11445;53.816;8.902;2023-04-16T00:51:52;26.92;;;16.73;;
22557;SDS011;11445;53.816;8.902;2023-04-16T00:54:19;30.95;;;17.73;;
22557;SDS011;11445;53.816;8.902;2023-04-16T00:56:47;30.17;;;17.50;;
22557;SDS011;11445;53.816;8.902;2023-04-16T00:59:14;27.67;;;17.40;;
22557;SDS011;11445;53.816;8.902;2023-04-16T01:01:42;27.80;;;17.50;;
22557;SDS011;11445;53.816;8.902;2023-04-16T01:04:10;30.63;;;17.77;;
22557;SDS011;11445;53.816;8.902;2023-04-16T01:06:37;33.38;;;19.23;;
22557;SDS011;11445;53.816;8.902;2023-04-16T01:09:04;31.02;;;17.83;;
22557;SDS011;11445;53.816;8.902;2023-04-16T01:11:31;27.00;;;17.85;;
22557;SDS011;11445;53.816;8.902;2023-04-16T01:13:58;30.15;;;18.52;;
22557;SDS011;11445;53.816;8.902;2023-04-16T01:16:25;32.33;;;17.80;;
22557;SDS011;11445;53.816;8.902;2023-04-16T01:18:52;31.83;;;18.40;;
22557;SDS011;11445;53.816;8.902;2023-04-16T01:21:21;34.35;;;18.20;;
22557;SDS011;11445;53.816;8.902;2023-04-16T01:23:48;28.15;;;17.52;;
22557;SDS011;11445;53.816;8.902;2023-04-16T01:26:15;26.58;;;16.77;;
22557;SDS011;11445;53.816;8.902;2023-04-16T01:28:42;27.83;;;18.48;;
22557;SDS011;11445;53.816;8.902;2023-04-16T01:31:09;30.90;;;17.73;;
22557;SDS011;11445;53.816;8.902;2023-04-16T01:33:36;31.13;;;18.23;;
22557;SDS011;11445;53.816;8.902;2023-04-16T01:36:03;30.65;;;17.50;;
22557;SDS011;11445;53.816;8.902;2023-04-16T01:38:32;28.77;;;17.63;;
22557;SDS011;11445;53.816;8.902;2023-04-16T01:40:59;28.35;;;18.50;;
22557;SDS011;11445;53.816;8.902;2023-04-16T01:43:26;27.50;;;17.45;;
22557;SDS011;11445;53.816;8.902;2023-04-16T01:45:56;28.67;;;17.83;;
22557;SDS011;11445;53.816;8.902;2023-04-16T01:48:35;31.70;;;18.30;;
22557;SDS011;11445;53.816;8.902;2023-04-16T01:51:02;31.02;;;18.50;;
22557;SDS011;11445;53.816;8.902;2023-04-16T01:53:32;34.25;;;18.55;;
22557;SDS011;11445;53.816;8.902;2023-04-16T01:55:59;30.42;;;17.13;;
22557;SDS011;11445;53.816;8.902;2023-04-16T01:58:26;33.03;;;18.67;;
22557;SDS011;11445;53.816;8.902;2023-04-16T02:00:54;33.75;;;18.55;;
22557;SDS011;11445;53.816;8.902;2023-04-16T02:03:21;32.83;;;18.52;;
22557;SDS011;11445;53.816;8.902;2023-04-16T02:05:49;29.20;;;18.52;;
22557;SDS011;11445;53.816;8.902;2023-04-16T02:08:16;35.10;;;18.42;;
22557;SDS011;11445;53.816;8.902;2023-04-16T02:10:45;35.35;;;18.65;;
22557;SDS011;11445;53.816;8.902;2023-04-16T02:13:13;31.17;;;18.40;;
22557;SDS011;11445;53.816;8.902;2023-04-16T02:15:43;32.67;;;18.52;;
22557;SDS011;11445;53.816;8.902;2023-04-16T02:18:12;28.75;;;17.80;;
22557;SDS011;11445;53.816;8.902;2023-04-16T02:20:39;31.77;;;18.40;;
22557;SDS011;11445;53.816;8.902;2023-04-16T02:23:07;30.60;;;18.27;;
22557;SDS011;11445;53.816;8.902;2023-04-16T02:25:37;28.95;;;17.98;;
22557;SDS011;11445;53.816;8.902;2023-04-16T02:28:07;30.55;;;18.60;;
22557;SDS011;11445;53.816;8.902;2023-04-16T02:30:34;30.80;;;18.13;;
22557;SDS011;11445;53.816;8.902;2023-04-16T02:33:02;27.15;;;17.92;;
22557;SDS011;11445;53.816;8.902;2023-04-16T02:35:29;26.13;;;17.58;;
22557;SDS011;11445;53.816;8.902;2023-04-16T02:37:57;27.70;;;18.20;;
22557;SDS011;11445;53.816;8.902;2023-04-16T02:40:24;28.30;;;17.95;;
22557;SDS011;11445;53.816;8.902;2023-04-16T02:42:51;29.30;;;18.23;;
22557;SDS011;11445;53.816;8.902;2023-04-16T02:45:20;27.63;;;17.75;;
22557;SDS011;11445;53.816;8.902;2023-04-16T02:47:47;33.80;;;18.75;;
22557;SDS011;11445;53.816;8.902;2023-04-16T02:50:15;33.40;;;19.38;;
22557;SDS011;11445;53.816;8.902;2023-04-16T02:52:42;29.20;;;17.73;;
22557;SDS011;11445;53.816;8.902;2023-04-16T02:55:10;30.67;;;18.52;;
22557;SDS011;11445;53.816;8.902;2023-04-16T02:57:37;31.75;;;18.55;;
22557;SDS011;11445;53.816;8.902;2023-04-16T03:00:05;30.83;;;19.00;;
22557;SDS011;11445;53.816;8.902;2023-04-16T03:02:34;32.30;;;18.50;;
22557;SDS011;11445;53.816;8.902;2023-04-16T03:05:01;29.98;;;17.17;;
22557;SDS011;11445;53.816;8.902;2023-04-16T03:07:29;30.92;;;18.30;;
22557;SDS011;11445;53.816;8.902;2023-04-16T03:09:56;31.27;;;17.77;;
22557;SDS011;11445;53.816;8.902;2023-04-16T03:12:23;28.52;;;17.35;;
22557;SDS011;11445;53.816;8.902;2023-04-16T03:14:50;28.52;;;18.30;;
22557;SDS011;11445;53.816;8.902;2023-04-16T03:17:17;30.60;;;18.55;;
22557;SDS011;11445;53.816;8.902;2023-04-16T03:19:46;32.63;;;17.35;;
22557;SDS011;11445;53.816;8.902;2023-04-16T03:22:14;27.30;;;17.63;;
22557;SDS011;11445;53.816;8.902;2023-04-16T03:24:41;30.65;;;17.95;;
22557;SDS011;11445;53.816;8.902;2023-04-16T03:27:08;30.13;;;17.85;;
22557;SDS011;11445;53.816;8.902;2023-04-16T03:29:36;30.00;;;18.48;;
22557;SDS011;11445;53.816;8.902;2023-04-16T03:32:03;28.83;;;17.73;;
22557;SDS011;11445;53.816;8.902;2023-04-16T03:34:30;28.67;;;17.70;;
22557;SDS011;11445;53.816;8.902;2023-04-16T03:36:58;27.38;;;17.95;;
22557;SDS011;11445;53.816;8.902;2023-04-16T03:39:25;29.65;;;18.15;;
22557;SDS011;11445;53.816;8.902;2023-04-16T03:41:52;30.58;;;18.77;;
22557;SDS011;11445;53.816;8.902;2023-04-16T03:44:20;27.45;;;18.33;;
22557;SDS011;11445;53.816;8.902;2023-04-16T03:46:47;31.27;;;17.58;;
22557;SDS011;11445;53.816;8.902;2023-04-16T03:49:14;28.08;;;17.55;;
22557;SDS011;11445;53.816;8.902;2023-04-16T03:51:41;31.88;;;17.35;;
22557;SDS011;11445;53.816;8.902;2023-04-16T03:54:09;29.80;;;17.42;;
22557;SDS011;11445;53.816;8.902;2023-04-16T03:56:36;31.45;;;17.88;;
22557;SDS011;11445;53.816;8.902;2023-04-16T03:59:05;29.00;;;17.75;;
22557;SDS011;11445;53.816;8.902;2023-04-16T04:01:32;28.90;;;18.55;;
22557;SDS011;11445;53.816;8.902;2023-04-16T04:03:59;31.75;;;18.33;;
22557;SDS011;11445;53.816;8.902;2023-04-16T04:06:26;28.50;;;17.63;;
22557;SDS011;11445;53.816;8.902;2023-04-16T04:08:53;29.15;;;17.25;;
22557;SDS011;11445;53.816;8.902;2023-04-16T04:11:21;32.28;;;18.35;;
22557;SDS011;11445;53.816;8.902;2023-04-16T04:13:48;28.52;;;17.63;;
22557;SDS011;11445;53.816;8.902;2023-04-16T04:16:15;29.48;;;18.10;;
22557;SDS011;11445;53.816;8.902;2023-04-16T04:18:42;32.90;;;18.65;;
22557;SDS011;11445;53.816;8.902;2023-04-16T04:21:09;31.63;;;17.88;;
22557;SDS011;11445;53.816;8.902;2023-04-16T04:23:36;32.33;;;18.65;;
22557;SDS011;11445;53.816;8.902;2023-04-16T04:26:05;33.17;;;18.25;;
22557;SDS011;11445;53.816;8.902;2023-04-16T04:28:34;30.77;;;17.83;;
22557;SDS011;11445;53.816;8.902;2023-04-16T04:31:01;27.63;;;17.27;;
22557;SDS011;11445;53.816;8.902;2023-04-16T04:33:28;32.75;;;18.70;;
22557;SDS011;11445;53.816;8.902;2023-04-16T04:35:55;29.40;;;18.35;;
22557;SDS011;11445;53.816;8.902;2023-04-16T04:38:22;31.17;;;18.42;;
22557;SDS011;11445;53.816;8.902;2023-04-16T04:40:49;26.63;;;17.73;;
22557;SDS011;11445;53.816;8.902;2023-04-16T04:43:17;32.10;;;17.35;;
22557;SDS011;11445;53.816;8.902;2023-04-16T04:45:45;36.75;;;18.77;;
22557;SDS011;11445;53.816;8.902;2023-04-16T04:48:13;29.13;;;17.55;;
22557;SDS011;11445;53.816;8.902;2023-04-16T04:50:40;32.53;;;17.95;;
22557;SDS011;11445;53.816;8.902;2023-04-16T04:53:07;32.58;;;17.55;;
22557;SDS011;11445;53.816;8.902;2023-04-16T04:55:35;31.10;;;18.50;;
22557;SDS011;11445;53.816;8.902;2023-04-16T04:58:02;34.10;;;18.48;;
22557;SDS011;11445;53.816;8.902;2023-04-16T05:00:29;28.15;;;17.63;;
22557;SDS011;11445;53.816;8.902;2023-04-16T05:03:00;28.27;;;18.02;;
22557;SDS011;11445;53.816;8.902;2023-04-16T05:05:27;29.20;;;18.33;;
22557;SDS011;11445;53.816;8.902;2023-04-16T05:07:54;32.50;;;17.92;;
22557;SDS011;11445;53.816;8.902;2023-04-16T05:10:22;30.90;;;17.77;;
22557;SDS011;11445;53.816;8.902;2023-04-16T05:12:49;29.70;;;18.30;;
22557;SDS011;11445;53.816;8.902;2023-04-16T05:15:16;35.63;;;19.27;;
22557;SDS011;11445;53.816;8.902;2023-04-16T05:17:43;32.65;;;18.10;;
22557;SDS011;11445;53.816;8.902;2023-04-16T05:20:11;31.45;;;18.60;;
22557;SDS011;11445;53.816;8.902;2023-04-16T05:22:38;28.58;;;17.92;;
22557;SDS011;11445;53.816;8.902;2023-04-16T05:25:05;30.17;;;17.90;;
22557;SDS011;11445;53.816;8.902;2023-04-16T05:27:33;25.67;;;17.38;;
22557;SDS011;11445;53.816;8.902;2023-04-16T05:30:01;34.60;;;17.92;;
22557;SDS011;11445;53.816;8.902;2023-04-16T05:32:28;31.42;;;17.80;;
22557;SDS011;11445;53.816;8.902;2023-04-16T05:34:55;27.23;;;17.38;;
22557;SDS011;11445;53.816;8.902;2023-04-16T05:37:23;29.65;;;18.40;;
22557;SDS011;11445;53.816;8.902;2023-04-16T05:39:50;29.15;;;17.77;;
22557;SDS011;11445;53.816;8.902;2023-04-16T05:42:17;25.70;;;16.88;;
22557;SDS011;11445;53.816;8.902;2023-04-16T05:44:44;28.73;;;17.88;;
22557;SDS011;11445;53.816;8.902;2023-04-16T05:47:11;29.48;;;18.55;;
22557;SDS011;11445;53.816;8.902;2023-04-16T05:49:38;28.13;;;18.40;;
22557;SDS011;11445;53.816;8.902;2023-04-16T05:52:05;27.50;;;18.27;;
22557;SDS011;11445;53.816;8.902;2023-04-16T05:54:34;34.30;;;18.50;;
22557;SDS011;11445;53.816;8.902;2023-04-16T05:57:01;31.27;;;18.55;;
22557;SDS011;11445;53.816;8.902;2023-04-16T05:59:28;30.65;;;18.25;;
22557;SDS011;11445;53.816;8.902;2023-04-16T06:01:56;30.92;;;18.77;;
22557;SDS011;11445;53.816;8.902;2023-04-16T06:04:23;30.52;;;17.17;;
22557;SDS011;11445;53.816;8.902;2023-04-16T06:06:50;29.17;;;17.85;;
22557;SDS011;11445;53.816;8.902;2023-04-16T06:09:17;30.33;;;18.13;;
22557;SDS011;11445;53.816;8.902;2023-04-16T06:11:45;29.38;;;18.23;;
22557;SDS011;11445;53.816;8.902;2023-04-16T06:14:13;30.63;;;18.25;;
22557;SDS011;11445;53.816;8.902;2023-04-16T06:16:40;32.08;;;18.02;;
22557;SDS011;11445;53.816;8.902;2023-04-16T06:19:07;28.67;;;18.35;;
22557;SDS011;11445;53.816;8.902;2023-04-16T06:21:34;34.58;;;17.95;;
22557;SDS011;11445;53.816;8.902;2023-04-16T06:24:02;27.33;;;16.85;;
22557;SDS011;11445;53.816;8.902;2023-04-16T06:26:29;31.17;;;17.30;;
22557;SDS011;11445;53.816;8.902;2023-04-16T06:28:57;29.38;;;17.35;;
22557;SDS011;11445;53.816;8.902;2023-04-16T06:31:24;29.63;;;18.42;;
22557;SDS011;11445;53.816;8.902;2023-04-16T06:33:52;29.67;;;17.55;;
22557;SDS011;11445;53.816;8.902;2023-04-16T06:36:19;29.13;;;17.58;;
22557;SDS011;11445;53.816;8.902;2023-04-16T06:38:46;33.00;;;18.23;;
22557;SDS011;11445;53.816;8.902;2023-04-16T06:41:13;33.45;;;17.80;;
22557;SDS011;11445;53.816;8.902;2023-04-16T06:43:40;26.10;;;17.13;;
22557;SDS011;11445;53.816;8.902;2023-04-16T06:46:08;31.35;;;17.67;;
22557;SDS011;11445;53.816;8.902;2023-04-16T06:48:35;31.45;;;18.30;;
22557;SDS011;11445;53.816;8.902;2023-04-16T06:51:02;29.85;;;18.50;;
22557;SDS011;11445;53.816;8.902;2023-04-16T06:53:29;25.73;;;17.27;;
22557;SDS011;11445;53.816;8.902;2023-04-16T06:55:57;26.10;;;17.58;;
22557;SDS011;11445;53.816;8.902;2023-04-16T06:58:24;30.05;;;18.13;;
22557;SDS011;11445;53.816;8.902;2023-04-16T07:00:51;28.42;;;18.05;;
22557;SDS011;11445;53.816;8.902;2023-04-16T07:03:20;30.90;;;17.85;;
22557;SDS011;11445;53.816;8.902;2023-04-16T07:05:47;33.75;;;17.85;;
22557;SDS011;11445;53.816;8.902;2023-04-16T07:08:14;25.40;;;17.35;;
22557;SDS011;11445;53.816;8.902;2023-04-16T07:10:41;30.45;;;17.90;;
22557;SDS011;11445;53.816;8.902;2023-04-16T07:13:08;29.98;;;18.60;;
22557;SDS011;11445;53.816;8.902;2023-04-16T07:15:35;30.45;;;17.90;;
22557;SDS011;11445;53.816;8.902;2023-04-16T07:18:02;28.95;;;18.60;;
22557;SDS011;11445;53.816;8.902;2023-04-16T07:20:31;29.13;;;18.00;;
22557;SDS011;11445;53.816;8.902;2023-04-16T07:22:58;29.50;;;18.90;;
22557;SDS011;11445;53.816;8.902;2023-04-16T07:25:25;30.98;;;19.45;;
22557;SDS011;11445;53.816;8.902;2023-04-16T07:27:52;30.27;;;18.85;;
22557;SDS011;11445;53.816;8.902;2023-04-16T07:30:19;36.20;;;19.40;;
22557;SDS011;11445;53.816;8.902;2023-04-16T07:32:46;37.53;;;20.05;;
22557;SDS011;11445;53.816;8.902;2023-04-16T07:35:13;31.60;;;19.73;;
22557;SDS011;11445;53.816;8.902;2023-04-16T07:37:41;33.38;;;19.25;;
22557;SDS011;11445;53.816;8.902;2023-04-16T07:40:09;36.13;;;20.50;;
22557;SDS011;11445;53.816;8.902;2023-04-16T07:42:36;33.10;;;21.02;;
22557;SDS011;11445;53.816;8.902;2023-04-16T07:45:04;35.63;;;21.05;;
22557;SDS011;11445;53.816;8.902;2023-04-16T07:47:32;36.80;;;20.70;;
22557;SDS011;11445;53.816;8.902;2023-04-16T07:49:59;38.35;;;20.77;;
22557;SDS011;11445;53.816;8.902;2023-04-16T07:52:26;33.72;;;22.02;;
22557;SDS011;11445;53.816;8.902;2023-04-16T07:54:54;35.67;;;21.38;;
22557;SDS011;11445;53.816;8.902;2023-04-16T07:57:21;36.50;;;22.23;;
22557;SDS011;11445;53.816;8.902;2023-04-16T07:59:48;37.38;;;23.30;;
22557;SDS011;11445;53.816;8.902;2023-04-16T08:02:15;34.55;;;21.60;;
22557;SDS011;11445;53.816;8.902;2023-04-16T08:04:42;34.63;;;22.75;;
22557;SDS011;11445;53.816;8.902;2023-04-16T08:07:10;35.97;;;22.13;;
22557;SDS011;11445;53.816;8.902;2023-04-16T08:09:42;38.15;;;22.42;;
22557;SDS011;11445;53.816;8.902;2023-04-16T08:12:14;36.50;;;22.42;;
22557;SDS011;11445;53.816;8.902;2023-04-16T08:14:41;36.85;;;21.45;;
22557;SDS011;11445;53.816;8.902;2023-04-16T08:17:09;37.13;;;22.77;;
22557;SDS011;11445;53.816;8.902;2023-04-16T08:19:36;37.67;;;22.45;;
22557;SDS011;11445;53.816;8.902;2023-04-16T08:22:03;33.72;;;20.42;;
22557;SDS011;11445;53.816;8.902;2023-04-16T08:24:31;37.10;;;21.77;;
22557;SDS011;11445;53.816;8.902;2023-04-16T08:26:58;30.92;;;20.30;;
22557;SDS011;11445;53.816;8.902;2023-04-16T08:29:27;33.80;;;21.88;;
22557;SDS011;11445;53.816;8.902;2023-04-16T08:31:54;41.72;;;22.67;;
22557;SDS011;11445;53.816;8.902;2023-04-16T08:34:21;35.85;;;21.65;;
22557;SDS011;11445;53.816;8.902;2023-04-16T08:36:48;35.50;;;22.38;;
22557;SDS011;11445;53.816;8.902;2023-04-16T08:39:15;37.70;;;22.55;;
22557;SDS011;11445;53.816;8.902;2023-04-16T08:41:42;36.65;;;23.50;;
22557;SDS011;11445;53.816;8.902;2023-04-16T08:44:13;38.03;;;21.88;;
22557;SDS011;11445;53.816;8.902;2023-04-16T08:46:45;40.50;;;22.73;;
22557;SDS011;11445;53.816;8.902;2023-04-16T08:49:13;35.60;;;22.63;;
22557;SDS011;11445;53.816;8.902;2023-04-16T08:51:43;41.63;;;23.02;;
22557;SDS011;11445;53.816;8.902;2023-04-16T08:54:16;34.30;;;20.85;;
22557;SDS011;11445;53.816;8.902;2023-04-16T08:56:57;35.35;;;21.08;;
22557;SDS011;11445;53.816;8.902;2023-04-16T08:59:24;37.15;;;22.10;;
22557;SDS011;11445;53.816;8.902;2023-04-16T09:01:54;33.92;;;21.00;;
22557;SDS011;11445;53.816;8.902;2023-04-16T09:04:26;38.80;;;21.42;;
22557;SDS011;11445;53.816;8.902;2023-04-16T09:06:54;35.65;;;21.55;;
22557;SDS011;11445;53.816;8.902;2023-04-16T09:09:21;36.50;;;22.33;;
22557;SDS011;11445;53.816;8.902;2023-04-16T09:11:49;34.75;;;21.08;;
22557;SDS011;11445;53.816;8.902;2023-04-16T09:14:17;36.22;;;21.67;;
22557;SDS011;11445;53.816;8.902;2023-04-16T09:16:46;33.53;;;21.17;;
22557;SDS011;11445;53.816;8.902;2023-04-16T09:19:15;37.10;;;20.90;;
22557;SDS011;11445;53.816;8.902;2023-04-16T09:21:44;32.95;;;20.55;;
22557;SDS011;11445;53.816;8.902;2023-04-16T09:24:13;34.38;;;20.42;;
22557;SDS011;11445;53.816;8.902;2023-04-16T09:26:40;33.85;;;21.58;;
22557;SDS011;11445;53.816;8.902;2023-04-16T09:29:08;34.22;;;21.27;;
22557;SDS011;11445;53.816;8.902;2023-04-16T09:31:35;33.25;;;21.40;;
22557;SDS011;11445;53.816;8.902;2023-04-16T09:34:03;35.03;;;22.05;;
22557;SDS011;11445;53.816;8.902;2023-04-16T09:36:32;36.80;;;22.30;;
22557;SDS011;11445;53.816;8.902;2023-04-16T09:39:00;35.08;;;21.58;;
22557;SDS011;11445;53.816;8.902;2023-04-16T09:41:29;32.50;;;20.73;;
22557;SDS011;11445;53.816;8.902;2023-04-16T09:43:57;39.90;;;21.98;;
22557;SDS011;11445;53.816;8.902;2023-04-16T09:46:28;33.38;;;21.85;;
22557;SDS011;11445;53.816;8.902;2023-04-16T09:48:55;37.85;;;21.52;;
22557;SDS011;11445;53.816;8.902;2023-04-16T09:51:23;36.60;;;20.50;;
22557;SDS011;11445;53.816;8.902;2023-04-16T09:53:52;33.40;;;20.45;;
22557;SDS011;11445;53.816;8.902;2023-04-16T09:56:22;32.70;;;19.73;;
22557;SDS011;11445;53.816;8.902;2023-04-16T09:58:55;30.70;;;19.55;;
22557;SDS011;11445;53.816;8.902;2023-04-16T10:01:22;29.60;;;19.73;;
22557;SDS011;11445;53.816;8.902;2023-04-16T10:03:51;32.20;;;18.52;;
22557;SDS011;11445;53.816;8.902;2023-04-16T10:06:22;30.08;;;18.65;;
22557;SDS011;11445;53.816;8.902;2023-04-16T10:08:53;27.23;;;18.00;;
22557;SDS011;11445;53.816;8.902;2023-04-16T10:11:21;33.10;;;18.58;;
22557;SDS011;11445;53.816;8.902;2023-04-16T10:13:49;30.63;;;18.40;;
22557;SDS011;11445;53.816;8.902;2023-04-16T10:16:16;27.40;;;17.40;;
22557;SDS011;11445;53.816;8.902;2023-04-16T10:18:44;29.45;;;17.92;;
22557;SDS011;11445;53.816;8.902;2023-04-16T10:21:11;25.95;;;16.35;;
22557;SDS011;11445;53.816;8.902;2023-04-16T10:23:40;28.80;;;17.23;;
22557;SDS011;11445;53.816;8.902;2023-04-16T10:26:10;30.20;;;17.88;;
22557;SDS011;11445;53.816;8.902;2023-04-16T10:28:37;26.58;;;17.27;;
22557;SDS011;11445;53.816;8.902;2023-04-16T10:31:06;26.40;;;16.20;;
22557;SDS011;11445;53.816;8.902;2023-04-16T10:33:34;26.60;;;16.55;;
22557;SDS011;11445;53.816;8.902;2023-04-16T10:36:08;28.77;;;16.95;;
22557;SDS011;11445;53.816;8.902;2023-04-16T10:38:39;28.27;;;15.93;;
22557;SDS011;11445;53.816;8.902;2023-04-16T10:41:07;25.13;;;15.65;;
22557;SDS011;11445;53.816;8.902;2023-04-16T10:43:39;23.00;;;15.10;;
22557;SDS011;11445;53.816;8.902;2023-04-16T10:48:58;22.42;;;14.43;;
22557;SDS011;11445;53.816;8.902;2023-04-16T10:51:27;24.02;;;15.00;;
22557;SDS011;11445;53.816;8.902;2023-04-16T10:53:55;24.73;;;14.82;;
22557;SDS011;11445;53.816;8.902;2023-04-16T10:56:23;24.05;;;14.65;;
22557;SDS011;11445;53.816;8.902;2023-04-16T10:58:53;28.08;;;14.65;;
22557;SDS011;11445;53.816;8.902;2023-04-16T11:01:31;22.30;;;14.50;;
22557;SDS011;11445;53.816;8.902;2023-04-16T11:03:59;20.23;;;13.88;;
22557;SDS011;11445;53.816;8.902;2023-04-16T11:06:27;24.17;;;14.65;;
22557;SDS011;11445;53.816;8.902;2023-04-16T11:08:56;25.92;;;14.98;;
22557;SDS011;11445;53.816;8.902;2023-04-16T11:11:23;23.20;;;14.35;;
22557;SDS011;11445;53.816;8.902;2023-04-16T11:13:54;25.90;;;14.23;;
22557;SDS011;11445;53.816;8.902;2023-04-16T11:16:23;26.23;;;15.07;;
22557;SDS011;11445;53.816;8.902;2023-04-16T11:18:51;25.52;;;15.00;;
22557;SDS011;11445;53.816;8.902;2023-04-16T11:21:18;22.85;;;15.15;;
22557;SDS011;11445;53.816;8.902;2023-04-16T11:23:49;22.13;;;15.00;;
22557;SDS011;11445;53.816;8.902;2023-04-16T11:26:23;25.20;;;16.48;;
22557;SDS011;11445;53.816;8.902;2023-04-16T11:28:52;23.50;;;15.77;;
22557;SDS011;11445;53.816;8.902;2023-04-16T11:31:22;21.08;;;14.25;;
22557;SDS011;11445;53.816;8.902;2023-04-16T11:33:51;27.38;;;16.52;;
22557;SDS011;11445;53.816;8.902;2023-04-16T11:36:18;25.33;;;16.35;;
22557;SDS011;11445;53.816;8.902;2023-04-16T11:38:45;17.92;;;13.02;;
22557;SDS011;11445;53.816;8.902;2023-04-16T11:41:17;25.35;;;15.55;;
22557;SDS011;11445;53.816;8.902;2023-04-16T11:43:45;27.45;;;16.92;;
22557;SDS011;11445;53.816;8.902;2023-04-16T11:46:13;23.38;;;15.90;;
22557;SDS011;11445;53.816;8.902;2023-04-16T11:48:48;27.80;;;17.83;;
22557;SDS011;11445;53.816;8.902;2023-04-16T11:51:15;27.85;;;18.10;;
22557;SDS011;11445;53.816;8.902;2023-04-16T11:53:46;26.00;;;17.02;;
22557;SDS011;11445;53.816;8.902;2023-04-16T11:56:14;28.00;;;17.05;;
22557;SDS011;11445;53.816;8.902;2023-04-16T11:59:04;30.13;;;18.52;;
22557;SDS011;11445;53.816;8.902;2023-04-16T12:01:32;25.70;;;18.50;;
22557;SDS011;11445;53.816;8.902;2023-04-16T12:04:02;26.95;;;18.75;;
22557;SDS011;11445;53.816;8.902;2023-04-16T12:06:29;26.98;;;18.00;;
22557;SDS011;11445;53.816;8.902;2023-04-16T12:08:57;28.83;;;19.13;;
22557;SDS011;11445;53.816;8.902;2023-04-16T12:11:36;28.70;;;19.40;;
22557;SDS011;11445;53.816;8.902;2023-04-16T12:14:07;27.70;;;19.20;;
22557;SDS011;11445;53.816;8.902;2023-04-16T12:16:35;29.92;;;19.10;;
22557;SDS011;11445;53.816;8.902;2023-04-16T12:19:03;28.20;;;19.08;;
22557;SDS011;11445;53.816;8.902;2023-04-16T12:21:37;27.58;;;19.80;;
22557;SDS011;11445;53.816;8.902;2023-04-16T12:24:06;29.50;;;19.00;;
22557;SDS011;11445;53.816;8.902;2023-04-16T12:26:37;35.60;;;19.88;;
22557;SDS011;11445;53.816;8.902;2023-04-16T12:29:15;31.27;;;20.13;;
22557;SDS011;11445;53.816;8.902;2023-04-16T12:31:43;29.30;;;19.65;;
22557;SDS011;11445;53.816;8.902;2023-04-16T12:34:12;31.10;;;19.63;;
22557;SDS011;11445;53.816;8.902;2023-04-16T12:36:40;28.83;;;19.70;;
22557;SDS011;11445;53.816;8.902;2023-04-16T12:39:07;29.55;;;19.35;;
22557;SDS011;11445;53.816;8.902;2023-04-16T12:41:35;32.55;;;19.08;;
22557;SDS011;11445;53.816;8.902;2023-04-16T12:44:04;27.35;;;18.27;;
22557;SDS011;11445;53.816;8.902;2023-04-16T12:46:33;26.00;;;17.55;;
22557;SDS011;11445;53.816;8.902;2023-04-16T12:49:01;25.55;;;17.52;;
22557;SDS011;11445;53.816;8.902;2023-04-16T12:51:30;26.80;;;17.55;;
22557;SDS011;11445;53.816;8.902;2023-04-16T12:53:57;26.75;;;17.13;;
22557;SDS011;11445;53.816;8.902;2023-04-16T12:56:24;28.23;;;16.77;;
22557;SDS011;11445;53.816;8.902;2023-04-16T12:58:51;25.63;;;16.58;;
22557;SDS011;11445;53.816;8.902;2023-04-16T13:01:18;27.17;;;17.20;;
22557;SDS011;11445;53.816;8.902;2023-04-16T13:03:46;31.83;;;17.05;;
22557;SDS011;11445;53.816;8.902;2023-04-16T13:06:13;26.30;;;15.82;;
22557;SDS011;11445;53.816;8.902;2023-04-16T13:08:42;26.35;;;16.58;;
22557;SDS011;11445;53.816;8.902;2023-04-16T13:11:10;27.88;;;16.42;;
22557;SDS011;11445;53.816;8.902;2023-04-16T13:13:37;28.02;;;16.23;;
22557;SDS011;11445;53.816;8.902;2023-04-16T13:16:04;25.05;;;16.42;;
22557;SDS011;11445;53.816;8.902;2023-04-16T13:18:34;27.00;;;16.65;;
22557;SDS011;11445;53.816;8.902;2023-04-16T13:21:02;30.65;;;16.88;;
22557;SDS011;11445;53.816;8.902;2023-04-16T13:23:29;30.30;;;16.40;;
22557;SDS011;11445;53.816;8.902;2023-04-16T13:25:58;25.27;;;16.38;;
22557;SDS011;11445;53.816;8.902;2023-04-16T13:28:25;26.13;;;15.02;;
22557;SDS011;11445;53.816;8.902;2023-04-16T13:30:52;24.08;;;16.08;;
22557;SDS011;11445;53.816;8.902;2023-04-16T13:33:19;26.77;;;16.13;;
22557;SDS011;11445;53.816;8.902;2023-04-16T13:35:47;24.15;;;15.93;;
22557;SDS011;11445;53.816;8.902;2023-04-16T13:38:14;27.15;;;16.42;;
22557;SDS011;11445;53.816;8.902;2023-04-16T13:40:41;27.23;;;16.23;;
22557;SDS011;11445;53.816;8.902;2023-04-16T13:43:10;25.33;;;15.23;;
22557;SDS011;11445;53.816;8.902;2023-04-16T13:45:37;23.85;;;15.55;;
22557;SDS011;11445;53.816;8.902;2023-04-16T13:48:05;24.70;;;15.20;;
22557;SDS011;11445;53.816;8.902;2023-04-16T13:50:32;20.90;;;15.23;;
22557;SDS011;11445;53.816;8.902;2023-04-16T13:52:59;22.20;;;14.90;;
22557;SDS011;11445;53.816;8.902;2023-04-16T13:55:27;28.25;;;14.95;;
22557;SDS011;11445;53.816;8.902;2023-04-16T13:57:55;25.02;;;15.52;;
22557;SDS011;11445;53.816;8.902;2023-04-16T14:00:24;21.60;;;14.30;;
22557;SDS011;11445;53.816;8.902;2023-04-16T14:02:51;21.58;;;15.07;;
22557;SDS011;11445;53.816;8.902;2023-04-16T14:05:18;23.92;;;14.85;;
22557;SDS011;11445;53.816;8.902;2023-04-16T14:07:47;22.73;;;15.07;;
22557;SDS011;11445;53.816;8.902;2023-04-16T14:10:14;23.35;;;14.57;;
22557;SDS011;11445;53.816;8.902;2023-04-16T14:12:41;22.30;;;15.15;;
22557;SDS011;11445;53.816;8.902;2023-04-16T14:15:08;23.65;;;14.52;;
22557;SDS011;11445;53.816;8.902;2023-04-16T14:17:40;30.73;;;14.60;;
22557;SDS011;11445;53.816;8.902;2023-04-16T14:20:08;23.98;;;15.52;;
22557;SDS011;11445;53.816;8.902;2023-04-16T14:22:36;22.17;;;14.95;;
22557;SDS011;11445;53.816;8.902;2023-04-16T14:25:04;23.75;;;15.20;;
22557;SDS011;11445;53.816;8.902;2023-04-16T14:27:31;22.88;;;14.80;;